sensor_id;sensor_type;location;lat;lon;timestamp;pressure;altitude;pressure_sealevel;temperature;humidity
5954;BME280;3002;42.642;24.812;2023-03-03T00:01:37;96644.31;;;8.00;100.00
5954;BME280;3002;42.642;24.812;2023-03-03T00:04:03;96648.59;;;8.01;100.00
5954;BME280;3002;42.642;24.812;2023-03-03T00:06:29;96632.81;;;7.90;100.00
5954;BME280;3002;42.642;24.812;2023-03-03T00:08:55;96634.69;;;8.15;100.00
5954;BME280;3002;42.642;24.812;2023-03-03T00:11:20;96639.19;;;7.78;100.00
5954;BME280;3002;42.642;24.812;2023-03-03T00:13:52;96646.72;;;8.27;100.00
5954;BME280;3002;42.642;24.812;2023-03-03T00:16:34;96616.00;;;7.94;100.00
5954;BME280;3002;42.642;24.812;2023-03-03T00:19:01;96615.59;;;7.30;100.00
5954;BME280;3002;42.642;24.812;2023-03-03T00:21:41;96614.06;;;7.44;100.00
5954;BME280;3002;42.642;24.812;2023-03-03T00:26:44;96635.78;;;8.19;100.00
5954;BME280;3002;42.642;24.812;2023-03-03T00:29:25;96634.94;;;8.33;100.00
5954;BME280;3002;42.642;24.812;2023-03-03T00:34:25;96601.56;;;8.21;100.00
5954;BME280;3002;42.642;24.812;2023-03-03T00:36:55;96624.53;;;8.27;100.00
5954;BME280;3002;42.642;24.812;2023-03-03T00:41:50;96619.22;;;8.07;100.00
5954;BME280;3002;42.642;24.812;2023-03-03T00:44:47;96614.94;;;8.16;100.00
5954;BME280;3002;42.642;24.812;2023-03-03T00:49:41;96595.69;;;8.03;100.00
5954;BME280;3002;42.642;24.812;2023-03-03T00:52:18;96580.19;;;8.21;100.00
5954;BME280;3002;42.642;24.812;2023-03-03T00:55:15;96587.69;;;8.19;100.00
5954;BME280;3002;42.642;24.812;2023-03-03T00:57:40;96573.28;;;7.94;100.00
5954;BME280;3002;42.642;24.812;2023-03-03T01:00:07;96547.38;;;7.64;100.00
5954;BME280;3002;42.642;24.812;2023-03-03T01:02:34;96530.03;;;7.62;100.00
5954;BME280;3002;42.642;24.812;2023-03-03T01:05:01;96575.94;;;7.99;100.00
5954;BME280;3002;42.642;24.812;2023-03-03T01:07:26;96577.28;;;7.87;100.00
5954;BME280;3002;42.642;24.812;2023-03-03T01:09:52;96569.53;;;7.80;100.00
5954;BME280;3002;42.642;24.812;2023-03-03T01:12:17;96567.38;;;8.02;100.00
5954;BME280;3002;42.642;24.812;2023-03-03T01:14:44;96537.25;;;7.87;100.00
5954;BME280;3002;42.642;24.812;2023-03-03T01:17:10;96555.94;;;7.82;100.00
5954;BME280;3002;42.642;24.812;2023-03-03T01:19:35;96580.22;;;8.05;100.00
5954;BME280;3002;42.642;24.812;2023-03-03T01:22:01;96567.66;;;8.11;100.00
5954;BME280;3002;42.642;24.812;2023-03-03T01:24:27;96558.31;;;8.09;100.00
5954;BME280;3002;42.642;24.812;2023-03-03T01:26:52;96547.13;;;7.76;100.00
5954;BME280;3002;42.642;24.812;2023-03-03T01:29:18;96565.53;;;7.57;100.00
5954;BME280;3002;42.642;24.812;2023-03-03T01:31:43;96545.53;;;7.75;100.00
5954;BME280;3002;42.642;24.812;2023-03-03T01:34:09;96558.59;;;7.92;100.00
5954;BME280;3002;42.642;24.812;2023-03-03T01:36:34;96516.41;;;7.89;100.00
5954;BME280;3002;42.642;24.812;2023-03-03T01:39:02;96543.88;;;8.20;100.00
5954;BME280;3002;42.642;24.812;2023-03-03T01:41:29;96536.38;;;8.32;100.00
5954;BME280;3002;42.642;24.812;2023-03-03T01:43:58;96527.59;;;8.11;100.00
5954;BME280;3002;42.642;24.812;2023-03-03T01:49:25;96534.81;;;7.95;100.00
5954;BME280;3002;42.642;24.812;2023-03-03T01:51:54;96535.34;;;8.02;100.00
5954;BME280;3002;42.642;24.812;2023-03-03T01:56:47;96475.00;;;7.05;100.00
5954;BME280;3002;42.642;24.812;2023-03-03T01:59:17;96552.44;;;7.66;100.00
5954;BME280;3002;42.642;24.812;2023-03-03T02:01:46;96545.22;;;7.61;100.00
5954;BME280;3002;42.642;24.812;2023-03-03T02:04:12;96539.09;;;7.81;100.00
5954;BME280;3002;42.642;24.812;2023-03-03T02:07:00;96547.06;;;7.30;100.00
5954;BME280;3002;42.642;24.812;2023-03-03T02:12:35;96537.91;;;6.90;100.00
5954;BME280;3002;42.642;24.812;2023-03-03T02:15:15;96517.72;;;7.20;100.00
5954;BME280;3002;42.642;24.812;2023-03-03T02:17:54;96551.91;;;7.89;100.00
5954;BME280;3002;42.642;24.812;2023-03-03T02:23:26;96537.75;;;7.84;100.00
5954;BME280;3002;42.642;24.812;2023-03-03T02:26:23;96551.09;;;8.14;100.00
5954;BME280;3002;42.642;24.812;2023-03-03T02:29:09;96549.47;;;7.37;100.00
5954;BME280;3002;42.642;24.812;2023-03-03T02:31:35;96542.03;;;7.44;100.00
5954;BME280;3002;42.642;24.812;2023-03-03T02:34:03;96537.50;;;7.80;100.00
5954;BME280;3002;42.642;24.812;2023-03-03T02:39:15;96548.47;;;7.68;100.00
5954;BME280;3002;42.642;24.812;2023-03-03T02:42:19;96552.72;;;7.85;100.00
5954;BME280;3002;42.642;24.812;2023-03-03T02:44:43;96540.69;;;7.46;100.00
5954;BME280;3002;42.642;24.812;2023-03-03T02:47:09;96538.00;;;7.26;100.00
5954;BME280;3002;42.642;24.812;2023-03-03T02:49:38;96532.72;;;7.62;100.00
5954;BME280;3002;42.642;24.812;2023-03-03T02:52:08;96538.56;;;7.59;100.00
5954;BME280;3002;42.642;24.812;2023-03-03T02:54:35;96543.06;;;7.43;100.00
5954;BME280;3002;42.642;24.812;2023-03-03T02:57:03;96550.88;;;7.80;100.00
5954;BME280;3002;42.642;24.812;2023-03-03T02:59:33;96535.34;;;7.67;100.00
5954;BME280;3002;42.642;24.812;2023-03-03T03:01:59;96527.38;;;7.87;100.00
5954;BME280;3002;42.642;24.812;2023-03-03T03:04:26;96510.53;;;7.71;100.00
5954;BME280;3002;42.642;24.812;2023-03-03T03:06:53;96536.09;;;7.21;100.00
5954;BME280;3002;42.642;24.812;2023-03-03T03:09:21;96535.22;;;6.85;100.00
5954;BME280;3002;42.642;24.812;2023-03-03T03:11:49;96543.88;;;7.33;100.00
5954;BME280;3002;42.642;24.812;2023-03-03T03:14:19;96544.03;;;7.01;100.00
5954;BME280;3002;42.642;24.812;2023-03-03T03:16:44;96524.91;;;7.24;100.00
5954;BME280;3002;42.642;24.812;2023-03-03T03:19:10;96538.94;;;6.94;100.00
5954;BME280;3002;42.642;24.812;2023-03-03T03:21:35;96519.03;;;7.17;100.00
5954;BME280;3002;42.642;24.812;2023-03-03T03:24:01;96509.38;;;6.96;100.00
5954;BME280;3002;42.642;24.812;2023-03-03T03:26:26;96533.53;;;6.69;100.00
5954;BME280;3002;42.642;24.812;2023-03-03T03:28:52;96541.13;;;7.03;100.00
5954;BME280;3002;42.642;24.812;2023-03-03T03:31:23;96545.72;;;7.22;100.00
5954;BME280;3002;42.642;24.812;2023-03-03T03:34:01;96550.56;;;7.51;100.00
5954;BME280;3002;42.642;24.812;2023-03-03T03:36:27;96519.84;;;7.23;100.00
5954;BME280;3002;42.642;24.812;2023-03-03T03:38:52;96549.19;;;7.43;100.00
5954;BME280;3002;42.642;24.812;2023-03-03T03:41:23;96548.94;;;7.40;100.00
5954;BME280;3002;42.642;24.812;2023-03-03T03:43:51;96525.97;;;7.29;100.00
5954;BME280;3002;42.642;24.812;2023-03-03T03:46:17;96516.09;;;7.19;100.00
5954;BME280;3002;42.642;24.812;2023-03-03T03:48:42;96536.38;;;7.20;100.00
5954;BME280;3002;42.642;24.812;2023-03-03T03:51:11;96541.22;;;7.38;100.00
5954;BME280;3002;42.642;24.812;2023-03-03T03:53:36;96539.84;;;7.20;100.00
5954;BME280;3002;42.642;24.812;2023-03-03T03:56:02;96524.31;;;6.97;100.00
5954;BME280;3002;42.642;24.812;2023-03-03T03:58:27;96505.91;;;6.90;100.00
5954;BME280;3002;42.642;24.812;2023-03-03T04:00:53;96531.81;;;7.25;100.00
5954;BME280;3002;42.642;24.812;2023-03-03T04:03:18;96496.06;;;6.96;100.00
5954;BME280;3002;42.642;24.812;2023-03-03T04:05:45;96533.69;;;7.10;100.00
5954;BME280;3002;42.642;24.812;2023-03-03T04:08:10;96547.56;;;7.17;100.00
5954;BME280;3002;42.642;24.812;2023-03-03T04:10:36;96524.31;;;6.97;100.00
5954;BME280;3002;42.642;24.812;2023-03-03T04:13:03;96542.97;;;6.97;100.00
5954;BME280;3002;42.642;24.812;2023-03-03T04:15:28;96542.22;;;7.12;100.00
5954;BME280;3002;42.642;24.812;2023-03-03T04:17:55;96546.53;;;7.43;100.00
5954;BME280;3002;42.642;24.812;2023-03-03T04:20:21;96535.06;;;7.33;100.00
5954;BME280;3002;42.642;24.812;2023-03-03T04:22:46;96543.31;;;7.31;100.00
5954;BME280;3002;42.642;24.812;2023-03-03T04:25:15;96538.00;;;7.41;100.00
5954;BME280;3002;42.642;24.812;2023-03-03T04:27:40;96540.66;;;7.36;100.00
5954;BME280;3002;42.642;24.812;2023-03-03T04:30:09;96553.50;;;7.60;100.00
5954;BME280;3002;42.642;24.812;2023-03-03T04:32:35;96544.41;;;7.35;100.00
5954;BME280;3002;42.642;24.812;2023-03-03T04:35:01;96550.56;;;7.51;100.00
5954;BME280;3002;42.642;24.812;2023-03-03T04:37:26;96546.56;;;7.59;100.00
5954;BME280;3002;42.642;24.812;2023-03-03T04:40:05;96550.56;;;7.61;100.00
5954;BME280;3002;42.642;24.812;2023-03-03T04:42:31;96571.66;;;7.63;100.00
5954;BME280;3002;42.642;24.812;2023-03-03T04:44:57;96564.72;;;7.51;100.00
5954;BME280;3002;42.642;24.812;2023-03-03T04:47:22;96535.31;;;7.21;100.00
5954;BME280;3002;42.642;24.812;2023-03-03T04:49:48;96538.81;;;7.47;100.00
5954;BME280;3002;42.642;24.812;2023-03-03T04:52:13;96550.84;;;7.70;100.00
5954;BME280;3002;42.642;24.812;2023-03-03T04:54:39;96560.44;;;7.61;100.00
5954;BME280;3002;42.642;24.812;2023-03-03T04:57:05;96548.41;;;7.48;100.00
5954;BME280;3002;42.642;24.812;2023-03-03T04:59:34;96505.19;;;7.41;100.00
5954;BME280;3002;42.642;24.812;2023-03-03T05:02:04;96554.84;;;7.83;100.00
5954;BME280;3002;42.642;24.812;2023-03-03T05:04:33;96547.66;;;7.83;100.00
5954;BME280;3002;42.642;24.812;2023-03-03T05:07:14;96565.78;;;7.91;100.00
5954;BME280;3002;42.642;24.812;2023-03-03T05:09:40;96557.25;;;7.94;100.00
5954;BME280;3002;42.642;24.812;2023-03-03T05:12:07;96538.31;;;7.75;100.00
5954;BME280;3002;42.642;24.812;2023-03-03T05:14:33;96561.00;;;7.88;100.00
5954;BME280;3002;42.642;24.812;2023-03-03T05:16:59;96563.94;;;7.87;100.00
5954;BME280;3002;42.642;24.812;2023-03-03T05:22:18;96563.66;;;7.73;100.00
5954;BME280;3002;42.642;24.812;2023-03-03T05:24:55;96552.19;;;7.88;100.00
5954;BME280;3002;42.642;24.812;2023-03-03T05:29:49;96549.75;;;7.45;100.00
5954;BME280;3002;42.642;24.812;2023-03-03T05:32:35;96555.91;;;7.51;100.00
5954;BME280;3002;42.642;24.812;2023-03-03T05:35:08;96545.53;;;7.80;100.00
5954;BME280;3002;42.642;24.812;2023-03-03T05:37:38;96554.31;;;7.96;100.00
5954;BME280;3002;42.642;24.812;2023-03-03T05:40:07;96519.59;;;8.01;100.00
5954;BME280;3002;42.642;24.812;2023-03-03T05:42:33;96534.03;;;8.00;100.00
5954;BME280;3002;42.642;24.812;2023-03-03T05:47:39;96516.66;;;8.02;100.00
5954;BME280;3002;42.642;24.812;2023-03-03T05:50:04;96533.47;;;8.08;100.00
5954;BME280;3002;42.642;24.812;2023-03-03T05:52:30;96532.44;;;8.04;100.00
5954;BME280;3002;42.642;24.812;2023-03-03T05:54:56;96539.88;;;7.97;100.00
5954;BME280;3002;42.642;24.812;2023-03-03T05:57:23;96551.91;;;8.40;100.00
5954;BME280;3002;42.642;24.812;2023-03-03T05:59:48;96542.00;;;8.15;100.00
5954;BME280;3002;42.642;24.812;2023-03-03T06:02:14;96528.94;;;8.09;100.00
5954;BME280;3002;42.642;24.812;2023-03-03T06:04:40;96548.19;;;8.11;100.00
5954;BME280;3002;42.642;24.812;2023-03-03T06:07:07;96530.56;;;7.89;100.00
5954;BME280;3002;42.642;24.812;2023-03-03T06:09:33;96552.44;;;8.22;100.00
5954;BME280;3002;42.642;24.812;2023-03-03T06:11:58;96543.59;;;8.31;100.00
5954;BME280;3002;42.642;24.812;2023-03-03T06:14:28;96545.75;;;8.40;100.00
5954;BME280;3002;42.642;24.812;2023-03-03T06:16:54;96528.63;;;8.25;100.00
5954;BME280;3002;42.642;24.812;2023-03-03T06:19:21;96568.16;;;8.59;100.00
5954;BME280;3002;42.642;24.812;2023-03-03T06:21:47;96572.16;;;8.51;100.00
5954;BME280;3002;42.642;24.812;2023-03-03T06:24:12;96525.41;;;8.33;100.00
5954;BME280;3002;42.642;24.812;2023-03-03T06:26:38;96525.72;;;8.17;100.00
5954;BME280;3002;42.642;24.812;2023-03-03T06:29:03;96540.69;;;8.28;100.00
5954;BME280;3002;42.642;24.812;2023-03-03T06:31:29;96551.91;;;7.89;100.00
5954;BME280;3002;42.642;24.812;2023-03-03T06:33:55;96539.63;;;7.98;100.00
5954;BME280;3002;42.642;24.812;2023-03-03T06:36:20;96549.22;;;8.25;100.00
5954;BME280;3002;42.642;24.812;2023-03-03T06:38:46;96541.75;;;8.17;100.00
5954;BME280;3002;42.642;24.812;2023-03-03T06:41:14;96551.34;;;8.48;100.00
5954;BME280;3002;42.642;24.812;2023-03-03T06:43:40;96564.97;;;8.52;100.00
5954;BME280;3002;42.642;24.812;2023-03-03T06:46:05;96578.56;;;8.61;99.05
5954;BME280;3002;42.642;24.812;2023-03-03T06:48:31;96561.50;;;8.31;96.08
5954;BME280;3002;42.642;24.812;2023-03-03T06:50:59;96564.13;;;8.62;94.42
5954;BME280;3002;42.642;24.812;2023-03-03T06:53:26;96579.88;;;8.68;91.37
5954;BME280;3002;42.642;24.812;2023-03-03T06:55:51;96582.72;;;9.02;90.59
5954;BME280;3002;42.642;24.812;2023-03-03T06:58:20;96580.06;;;8.87;91.19
5954;BME280;3002;42.642;24.812;2023-03-03T07:00:56;96585.88;;;9.09;91.90
5954;BME280;3002;42.642;24.812;2023-03-03T07:03:32;96581.72;;;8.83;91.03
5954;BME280;3002;42.642;24.812;2023-03-03T07:05:58;96562.00;;;8.58;91.39
5954;BME280;3002;42.642;24.812;2023-03-03T07:08:25;96551.81;;;8.66;90.13
5954;BME280;3002;42.642;24.812;2023-03-03T07:10:53;96580.06;;;8.92;91.57
5954;BME280;3002;42.642;24.812;2023-03-03T07:15:49;96593.00;;;8.60;91.48
5954;BME280;3002;42.642;24.812;2023-03-03T07:21:35;96563.13;;;7.86;100.00
5954;BME280;3002;42.642;24.812;2023-03-03T07:24:25;96576.97;;;8.54;100.00
5954;BME280;3002;42.642;24.812;2023-03-03T07:26:58;96563.91;;;8.38;98.68
5954;BME280;3002;42.642;24.812;2023-03-03T07:29:28;96579.94;;;8.02;100.00
5954;BME280;3002;42.642;24.812;2023-03-03T07:31:57;96569.50;;;8.26;99.47
5954;BME280;3002;42.642;24.812;2023-03-03T07:34:30;96571.66;;;8.29;97.43
5954;BME280;3002;42.642;24.812;2023-03-03T07:37:05;96569.69;;;8.75;92.00
5954;BME280;3002;42.642;24.812;2023-03-03T07:39:36;96565.88;;;9.02;90.29
5954;BME280;3002;42.642;24.812;2023-03-03T07:44:36;96555.44;;;9.00;94.12
5954;BME280;3002;42.642;24.812;2023-03-03T07:47:19;96556.97;;;9.11;89.22
5954;BME280;3002;42.642;24.812;2023-03-03T07:49:51;96561.53;;;9.60;86.46
5954;BME280;3002;42.642;24.812;2023-03-03T07:54:44;96558.16;;;9.45;86.69
5954;BME280;3002;42.642;24.812;2023-03-03T07:59:37;96565.00;;;9.61;88.52
5954;BME280;3002;42.642;24.812;2023-03-03T08:02:08;96546.81;;;9.58;89.70
5954;BME280;3002;42.642;24.812;2023-03-03T08:04:43;96552.03;;;9.39;92.26
5954;BME280;3002;42.642;24.812;2023-03-03T08:07:16;96561.56;;;9.55;90.38
5954;BME280;3002;42.642;24.812;2023-03-03T08:09:57;96551.31;;;9.68;90.85
5954;BME280;3002;42.642;24.812;2023-03-03T08:12:26;96558.34;;;9.53;91.96
5954;BME280;3002;42.642;24.812;2023-03-03T08:14:54;96555.25;;;9.36;94.44
5954;BME280;3002;42.642;24.812;2023-03-03T08:17:23;96550.69;;;9.42;93.43
5954;BME280;3002;42.642;24.812;2023-03-03T08:19:52;96561.50;;;8.46;98.80
5954;BME280;3002;42.642;24.812;2023-03-03T08:22:33;96545.09;;;8.73;99.29
5954;BME280;3002;42.642;24.812;2023-03-03T08:25:03;96508.13;;;8.91;95.67
5954;BME280;3002;42.642;24.812;2023-03-03T08:27:28;96545.66;;;9.30;94.39
5954;BME280;3002;42.642;24.812;2023-03-03T08:29:54;96536.81;;;9.29;95.22
5954;BME280;3002;42.642;24.812;2023-03-03T08:32:19;96507.22;;;9.10;91.01
5954;BME280;3002;42.642;24.812;2023-03-03T08:34:45;96516.44;;;9.38;88.80
5954;BME280;3002;42.642;24.812;2023-03-03T08:37:10;96540.44;;;9.88;87.62
5954;BME280;3002;42.642;24.812;2023-03-03T08:39:36;96488.75;;;9.53;84.52
5954;BME280;3002;42.642;24.812;2023-03-03T08:42:04;96537.34;;;9.71;87.16
5954;BME280;3002;42.642;24.812;2023-03-03T08:44:31;96514.25;;;9.46;89.21
5954;BME280;3002;42.642;24.812;2023-03-03T08:46:56;96527.91;;;8.95;95.38
5954;BME280;3002;42.642;24.812;2023-03-03T08:49:22;96510.50;;;9.02;96.70
5954;BME280;3002;42.642;24.812;2023-03-03T08:51:50;96528.91;;;9.09;97.01
5954;BME280;3002;42.642;24.812;2023-03-03T08:54:19;96517.38;;;9.19;90.72
5954;BME280;3002;42.642;24.812;2023-03-03T08:56:45;96528.00;;;9.29;89.79
5954;BME280;3002;42.642;24.812;2023-03-03T08:59:11;96501.81;;;8.76;89.88
5954;BME280;3002;42.642;24.812;2023-03-03T09:01:37;96535.47;;;9.32;86.68
5954;BME280;3002;42.642;24.812;2023-03-03T09:04:03;96479.59;;;9.25;85.05
5954;BME280;3002;42.642;24.812;2023-03-03T09:06:28;96481.97;;;9.32;84.81
5954;BME280;3002;42.642;24.812;2023-03-03T09:08:55;96480.16;;;9.17;87.31
5954;BME280;3002;42.642;24.812;2023-03-03T09:11:25;96518.41;;;9.62;87.95
5954;BME280;3002;42.642;24.812;2023-03-03T09:14:12;96507.50;;;8.49;93.87
5954;BME280;3002;42.642;24.812;2023-03-03T09:16:41;96511.56;;;9.06;95.67
5954;BME280;3002;42.642;24.812;2023-03-03T09:19:36;96481.72;;;9.23;87.82
5954;BME280;3002;42.642;24.812;2023-03-03T09:22:18;96497.81;;;8.69;94.36
5954;BME280;3002;42.642;24.812;2023-03-03T09:24:46;96466.50;;;8.74;92.50
5954;BME280;3002;42.642;24.812;2023-03-03T09:27:33;96491.16;;;8.61;92.64
5954;BME280;3002;42.642;24.812;2023-03-03T09:30:33;96492.94;;;8.81;92.95
5954;BME280;3002;42.642;24.812;2023-03-03T09:33:01;96509.97;;;9.00;90.96
5954;BME280;3002;42.642;24.812;2023-03-03T09:35:37;96508.34;;;9.04;90.48
5954;BME280;3002;42.642;24.812;2023-03-03T09:38:32;96493.66;;;9.41;84.59
5954;BME280;3002;42.642;24.812;2023-03-03T09:49:33;96486.72;;;8.36;94.26
5954;BME280;3002;42.642;24.812;2023-03-03T09:55:21;96481.00;;;9.13;94.91
5954;BME280;3002;42.642;24.812;2023-03-03T10:03:43;96480.25;;;9.07;95.56
5954;BME280;3002;42.642;24.812;2023-03-03T10:14:56;96472.94;;;8.68;100.00
5954;BME280;3002;42.642;24.812;2023-03-03T10:23:18;96464.88;;;9.62;92.86
5954;BME280;3002;42.642;24.812;2023-03-03T10:26:16;96464.88;;;10.20;87.94
5954;BME280;3002;42.642;24.812;2023-03-03T10:29:02;96455.72;;;10.50;85.63
5954;BME280;3002;42.642;24.812;2023-03-03T10:34:54;96453.28;;;10.49;88.26
5954;BME280;3002;42.642;24.812;2023-03-03T10:37:55;96432.19;;;9.31;91.30
5954;BME280;3002;42.642;24.812;2023-03-03T10:40:51;96452.25;;;10.21;87.63
5954;BME280;3002;42.642;24.812;2023-03-03T10:54:46;96444.94;;;10.02;91.73
5954;BME280;3002;42.642;24.812;2023-03-03T11:06:37;96425.72;;;9.95;95.50
5954;BME280;3002;42.642;24.812;2023-03-03T11:20:30;96430.53;;;9.98;94.24
5954;BME280;3002;42.642;24.812;2023-03-03T11:23:31;96398.94;;;9.95;93.11
5954;BME280;3002;42.642;24.812;2023-03-03T11:40:29;96404.34;;;9.66;96.56
5954;BME280;3002;42.642;24.812;2023-03-03T11:43:11;96408.94;;;9.26;96.10
5954;BME280;3002;42.642;24.812;2023-03-03T11:46:06;96425.31;;;9.54;95.59
5954;BME280;3002;42.642;24.812;2023-03-03T11:48:47;96408.13;;;9.60;94.28
5954;BME280;3002;42.642;24.812;2023-03-03T11:54:03;96407.97;;;9.46;99.88
5954;BME280;3002;42.642;24.812;2023-03-03T11:56:46;96344.72;;;9.26;100.00
5954;BME280;3002;42.642;24.812;2023-03-03T11:59:36;96396.06;;;9.62;100.00
5954;BME280;3002;42.642;24.812;2023-03-03T12:04:58;96320.94;;;8.91;100.00
5954;BME280;3002;42.642;24.812;2023-03-03T12:07:52;96368.63;;;9.18;100.00
5954;BME280;3002;42.642;24.812;2023-03-03T12:15:56;96382.41;;;10.36;89.42
5954;BME280;3002;42.642;24.812;2023-03-03T12:41:34;96378.72;;;9.84;100.00
5954;BME280;3002;42.642;24.812;2023-03-03T12:44:25;96378.91;;;9.63;100.00
5954;BME280;3002;42.642;24.812;2023-03-03T12:47:34;96340.28;;;8.82;100.00
5954;BME280;3002;42.642;24.812;2023-03-03T12:53:15;96384.41;;;9.48;100.00
5954;BME280;3002;42.642;24.812;2023-03-03T12:56:02;96375.78;;;9.22;100.00
5954;BME280;3002;42.642;24.812;2023-03-03T13:10:39;96364.50;;;9.83;100.00
5954;BME280;3002;42.642;24.812;2023-03-03T13:13:23;96371.06;;;9.14;100.00
5954;BME280;3002;42.642;24.812;2023-03-03T13:16:09;96371.28;;;8.83;100.00
5954;BME280;3002;42.642;24.812;2023-03-03T13:18:53;96363.44;;;8.53;100.00
5954;BME280;3002;42.642;24.812;2023-03-03T13:21:46;96366.81;;;8.69;100.00
5954;BME280;3002;42.642;24.812;2023-03-03T13:24:22;96364.91;;;8.20;100.00
5954;BME280;3002;42.642;24.812;2023-03-03T13:26:54;96363.88;;;9.04;100.00
5954;BME280;3002;42.642;24.812;2023-03-03T13:29:41;96372.09;;;8.79;100.00
5954;BME280;3002;42.642;24.812;2023-03-03T13:32:23;96376.84;;;8.87;100.00
5954;BME280;3002;42.642;24.812;2023-03-03T13:35:14;96373.78;;;9.38;100.00
5954;BME280;3002;42.642;24.812;2023-03-03T13:37:47;96364.56;;;9.54;100.00
5954;BME280;3002;42.642;24.812;2023-03-03T13:40:27;96368.56;;;9.81;100.00
5954;BME280;3002;42.642;24.812;2023-03-03T13:54:23;96369.47;;;9.42;100.00
5954;BME280;3002;42.642;24.812;2023-03-03T14:05:36;96360.16;;;9.63;100.00
5954;BME280;3002;42.642;24.812;2023-03-03T14:17:03;96316.78;;;9.37;100.00
5954;BME280;3002;42.642;24.812;2023-03-03T14:25:11;96342.41;;;9.97;100.00
5954;BME280;3002;42.642;24.812;2023-03-03T14:30:31;96349.28;;;9.55;100.00
5954;BME280;3002;42.642;24.812;2023-03-03T14:35:41;96314.91;;;9.38;100.00
5954;BME280;3002;42.642;24.812;2023-03-03T14:38:19;96326.50;;;9.28;100.00
5954;BME280;3002;42.642;24.812;2023-03-03T14:40:46;96352.59;;;9.71;100.00
5954;BME280;3002;42.642;24.812;2023-03-03T14:43:31;96312.16;;;9.72;100.00
5954;BME280;3002;42.642;24.812;2023-03-03T14:46:32;96346.84;;;9.82;100.00
5954;BME280;3002;42.642;24.812;2023-03-03T14:49:04;96347.38;;;10.08;100.00
5954;BME280;3002;42.642;24.812;2023-03-03T14:51:48;96344.44;;;9.81;100.00
5954;BME280;3002;42.642;24.812;2023-03-03T14:54:26;96325.00;;;9.94;100.00
5954;BME280;3002;42.642;24.812;2023-03-03T14:59:25;96316.63;;;10.01;100.00
5954;BME280;3002;42.642;24.812;2023-03-03T15:04:43;96304.66;;;9.45;100.00
5954;BME280;3002;42.642;24.812;2023-03-03T15:09:48;96289.41;;;9.46;100.00
5954;BME280;3002;42.642;24.812;2023-03-03T15:12:35;96322.34;;;9.94;95.70
5954;BME280;3002;42.642;24.812;2023-03-03T15:20:46;96333.16;;;10.32;93.00
5954;BME280;3002;42.642;24.812;2023-03-03T15:23:47;96339.75;;;10.39;93.35
5954;BME280;3002;42.642;24.812;2023-03-03T15:27:00;96337.22;;;10.05;94.78
5954;BME280;3002;42.642;24.812;2023-03-03T15:32:17;96347.94;;;10.05;96.16
5954;BME280;3002;42.642;24.812;2023-03-03T15:34:56;96311.03;;;9.78;95.19
5954;BME280;3002;42.642;24.812;2023-03-03T15:38:03;96342.41;;;10.21;94.15
5954;BME280;3002;42.642;24.812;2023-03-03T15:40:59;96336.28;;;10.15;95.58
5954;BME280;3002;42.642;24.812;2023-03-03T15:43:36;96345.53;;;9.80;99.85
5954;BME280;3002;42.642;24.812;2023-03-03T15:49:20;96322.13;;;9.90;99.77
5954;BME280;3002;42.642;24.812;2023-03-03T15:52:18;96343.91;;;9.84;100.00
5954;BME280;3002;42.642;24.812;2023-03-03T16:00:28;96326.72;;;9.03;100.00
5954;BME280;3002;42.642;24.812;2023-03-03T16:03:17;96338.41;;;9.41;100.00
5954;BME280;3002;42.642;24.812;2023-03-03T16:12:15;96371.44;;;9.60;100.00
5954;BME280;3002;42.642;24.812;2023-03-03T16:15:16;96349.34;;;9.74;100.00
5954;BME280;3002;42.642;24.812;2023-03-03T16:34:26;96402.59;;;10.04;100.00
5954;BME280;3002;42.642;24.812;2023-03-03T16:37:17;96397.78;;;9.77;100.00
5954;BME280;3002;42.642;24.812;2023-03-03T16:42:44;96415.50;;;9.73;100.00
5954;BME280;3002;42.642;24.812;2023-03-03T16:45:51;96411.88;;;9.88;100.00
5954;BME280;3002;42.642;24.812;2023-03-03T16:48:32;96411.91;;;9.83;100.00
5954;BME280;3002;42.642;24.812;2023-03-03T16:51:41;96404.88;;;9.63;100.00
5954;BME280;3002;42.642;24.812;2023-03-03T16:54:34;96417.59;;;9.76;100.00
5954;BME280;3002;42.642;24.812;2023-03-03T16:59:41;96422.44;;;9.45;100.00
5954;BME280;3002;42.642;24.812;2023-03-03T17:05:10;96412.16;;;9.86;100.00
5954;BME280;3002;42.642;24.812;2023-03-03T17:07:41;96419.09;;;9.58;100.00
5954;BME280;3002;42.642;24.812;2023-03-03T17:10:29;96419.47;;;9.76;100.00
5954;BME280;3002;42.642;24.812;2023-03-03T17:15:41;96423.53;;;9.73;100.00
5954;BME280;3002;42.642;24.812;2023-03-03T17:18:20;96410.59;;;9.17;100.00
5954;BME280;3002;42.642;24.812;2023-03-03T17:21:11;96408.28;;;9.05;100.00
5954;BME280;3002;42.642;24.812;2023-03-03T17:23:48;96403.47;;;9.42;100.00
5954;BME280;3002;42.642;24.812;2023-03-03T17:26:33;96428.88;;;9.73;100.00
5954;BME280;3002;42.642;24.812;2023-03-03T17:29:11;96432.53;;;9.82;100.00
5954;BME280;3002;42.642;24.812;2023-03-03T17:32:10;96420.44;;;9.61;100.00
5954;BME280;3002;42.642;24.812;2023-03-03T17:45:41;96471.31;;;9.61;100.00
5954;BME280;3002;42.642;24.812;2023-03-03T17:57:22;96471.94;;;9.48;100.00
5954;BME280;3002;42.642;24.812;2023-03-03T18:00:10;96474.13;;;9.41;100.00
5954;BME280;3002;42.642;24.812;2023-03-03T18:08:58;96460.53;;;9.32;100.00
5954;BME280;3002;42.642;24.812;2023-03-03T18:22:48;96462.84;;;9.04;100.00
5954;BME280;3002;42.642;24.812;2023-03-03T18:25:23;96430.31;;;8.92;100.00
5954;BME280;3002;42.642;24.812;2023-03-03T18:30:27;96462.09;;;9.38;100.00
5954;BME280;3002;42.642;24.812;2023-03-03T18:41:02;96465.78;;;9.08;100.00
5954;BME280;3002;42.642;24.812;2023-03-03T18:49:09;96466.16;;;8.91;100.00
5954;BME280;3002;42.642;24.812;2023-03-03T18:57:09;96482.25;;;8.81;100.00
5954;BME280;3002;42.642;24.812;2023-03-03T19:04:53;96496.00;;;9.14;100.00
5954;BME280;3002;42.642;24.812;2023-03-03T19:07:27;96470.75;;;8.75;100.00
5954;BME280;3002;42.642;24.812;2023-03-03T19:10:01;96499.03;;;8.92;100.00
5954;BME280;3002;42.642;24.812;2023-03-03T19:12:53;96498.69;;;9.08;100.00
5954;BME280;3002;42.642;24.812;2023-03-03T19:20:54;96494.06;;;9.24;100.00
5954;BME280;3002;42.642;24.812;2023-03-03T19:23:25;96518.06;;;9.34;100.00
5954;BME280;3002;42.642;24.812;2023-03-03T19:29:24;96520.31;;;9.56;100.00
5954;BME280;3002;42.642;24.812;2023-03-03T19:34:51;96483.72;;;9.47;100.00
5954;BME280;3002;42.642;24.812;2023-03-03T19:37:40;96521.41;;;9.55;100.00